Aeroporto :
LOGIN :

Iscrizione | Disclaimer

   EN    FR    IT 

 










Sommario :    VFR   VFR Marginale   IFR   IFR Intensivo   IFR Molto Intensivo
Visibilità : 
Base nubi : 
>= 8 km
>= 3000ft
5 / 8 km
1000 / 3000 ft
1500m / 5 km
500 / 1000 ft
800 / 1500m
200 / 500 ft
< 800m
< 200 ft
Simboli :   Temporali  Nebbia  Neve Forte  Precipitazioni Forti  Vento > 20 kt
SIGMETs :   Varie  Temporali  Ghiacco  Turbolenza  Onda orograficha  Ceneri Vulcaniche






- Altitudine del aeroporto : 461 ft
- Codice IATA : WIE


ETOU - Wiesbaden Army

ULTIMO METAR :
  • 282056Z AUTO 02005KT 9999 CLR 16/02 A3037 RMK AO2 SLP285 T01610018 52008 $

METARs OBSOLETI :
  • 281956Z AUTO 03008KT 9999 CLR 17/01 A3036 RMK AO2 SLP281 T01670012 $
  • 281856Z AUTO 04007KT 9999 CLR 18/01 A3035 RMK AO2 SLP278 T01810007 $

TAF TAF ETOU
Valido dal 28 a 20 ore il 30 a 02 ore UTC


282000Z 2820/3002 02006KT 9999 SKC QNH3034INS
BECMG 2906/2907 05012G18KT 9999 SCT045 QNH3028INS TX23/2915Z TN11/2904Z



MetMap, La meteo Aeronautica in un colpo d'occhio ! - Copyright ORBIFLY Dicembre 2007 - Disclaimer

ORBIFLY MET'MAP TEAM :

Programmazione e sviluppo : Alexandra Zaïnal
Concezione : Baudouin d'Aumeries
Aiuto per la programmazione : Marc-Olivier Méhu
Supporto tecnico e logistico : Manuel Goepfert
Aiuto per la traduzione : Arnaldo La Scala

Contatto : metmap@orbifly.com




FONTI E CREDITI :

   NOAA